Time;durP1;ratioP1;P1;durP2;ratioP2;P2;SDS_P1;SDS_P2;PMS_P1;PMS_P2;Temp;Humidity;BMP_temperature;BMP_pressure;BME280_temperature;BME280_humidity;BME280_pressure;Samples;Min_cycle;Max_cycle;Signal;HPM_P1;HPM_P2
2022/04/30 00:02:40;;;;;;;13.13;7.00;;;;;;;12.14;63.95;101504.28;4975757;28;20101;-68
2022/04/30 00:05:43;;;;;;;11.95;7.13;;;;;;;12.23;64.57;101511.75;4976340;28;20085;-68
2022/04/30 00:08:47;;;;;;;17.00;8.02;;;;;;;12.22;65.55;101502.19;4976205;28;20045;-68
2022/04/30 00:11:50;;;;;;;15.80;6.80;;;;;;;12.04;66.78;101498.56;4976134;28;20098;-68
2022/04/30 00:14:55;;;;;;;14.48;6.70;;;;;;;11.94;67.21;101506.91;4976616;28;20191;-68
2022/04/30 00:17:58;;;;;;;13.93;6.63;;;;;;;11.86;67.15;101502.81;4975652;28;20553;-68
2022/04/30 00:21:01;;;;;;;13.85;6.65;;;;;;;12.12;66.31;101503.47;4978196;28;20057;-68
2022/04/30 00:24:05;;;;;;;13.57;6.72;;;;;;;12.00;64.38;101501.41;4976088;28;20524;-68
2022/04/30 00:27:10;;;;;;;12.15;6.25;;;;;;;12.16;64.00;101494.59;4976691;28;20398;-68
2022/04/30 00:30:14;;;;;;;11.23;7.20;;;;;;;12.18;66.19;101494.50;4975440;28;20081;-68
2022/04/30 00:33:18;;;;;;;12.27;6.43;;;;;;;11.97;66.82;101496.28;4975877;28;20042;-68
2022/04/30 00:36:22;;;;;;;14.85;6.53;;;;;;;12.06;66.48;101490.63;4984434;28;20053;-68
2022/04/30 00:39:27;;;;;;;12.68;6.20;;;;;;;12.14;64.66;101488.53;5002817;28;20045;-68
2022/04/30 00:42:31;;;;;;;13.98;7.20;;;;;;;12.21;64.79;101500.47;4996557;28;20088;-68
2022/04/30 00:45:34;;;;;;;15.40;6.82;;;;;;;12.01;66.94;101495.25;4990551;28;20049;-69
2022/04/30 00:48:40;;;;;;;13.55;6.35;;;;;;;12.01;66.78;101490.00;4976382;28;20054;-69
2022/04/30 00:51:44;;;;;;;10.80;6.55;;;;;;;12.10;65.72;101487.84;5005479;28;20060;-67
2022/04/30 00:54:56;;;;;;;11.57;6.95;;;;;;;12.03;64.94;101490.78;5014687;28;20049;-68
2022/04/30 00:58:05;;;;;;;12.43;7.32;;;;;;;11.90;66.72;101487.84;4994513;28;20177;-68
2022/04/30 01:01:09;;;;;;;16.05;7.65;;;;;;;11.97;67.90;101491.91;4994931;28;20040;-68
2022/04/30 01:04:31;;;;;;;14.05;8.10;;;;;;;11.99;67.84;101481.34;5013398;28;20122;-68
2022/04/30 01:07:39;;;;;;;13.85;8.40;;;;;;;11.94;68.54;101485.94;5039167;28;20045;-68
2022/04/30 01:10:43;;;;;;;14.05;8.80;;;;;;;11.59;70.11;101483.00;5017186;28;20460;-68
2022/04/30 01:13:47;;;;;;;16.25;8.63;;;;;;;11.52;70.74;101489.38;5002134;28;20037;-68
2022/04/30 01:16:50;;;;;;;14.80;8.88;;;;;;;11.50;70.50;101486.84;4974490;28;20151;-67
2022/04/30 01:19:54;;;;;;;14.98;9.50;;;;;;;11.64;70.69;101475.78;4974406;28;20054;-68
2022/04/30 01:23:03;;;;;;;16.10;9.13;;;;;;;11.68;72.08;101473.88;4974771;28;20093;-68
2022/04/30 01:26:09;;;;;;;17.38;9.18;;;;;;;11.72;71.59;101470.25;4974812;28;20189;-68
2022/04/30 01:29:12;;;;;;;16.23;9.50;;;;;;;11.49;72.58;101465.97;4978079;28;20085;-68
2022/04/30 01:39:00;;;;;;;14.43;9.07;;;;;;;11.47;73.16;101462.53;4974475;28;20050;-68
2022/04/30 01:42:10;;;;;;;12.07;9.07;;;;;;;11.46;72.94;101458.22;4974304;28;20058;-68
2022/04/30 01:45:16;;;;;;;18.85;9.05;;;;;;;11.49;72.58;101452.88;4974743;28;20533;-68
2022/04/30 01:48:21;;;;;;;14.45;9.05;;;;;;;11.40;72.38;101464.56;4974219;28;20077;-68
2022/04/30 01:51:24;;;;;;;17.80;8.95;;;;;;;11.50;72.15;101454.56;4973992;28;20054;-68
2022/04/30 01:54:28;;;;;;;13.10;9.43;;;;;;;11.50;71.52;101454.56;4974392;28;20058;-68
2022/04/30 01:57:32;;;;;;;13.35;9.00;;;;;;;11.34;72.60;101456.94;4978006;28;20041;-68
2022/04/30 02:00:36;;;;;;;14.45;8.65;;;;;;;11.26;71.84;101452.00;4993802;28;20057;-68
2022/04/30 02:03:39;;;;;;;19.17;9.73;;;;;;;11.36;72.60;101453.38;4993491;28;20524;-68
2022/04/30 02:06:43;;;;;;;13.68;8.63;;;;;;;11.17;72.94;101449.78;4993114;28;20125;-68
2022/04/30 02:09:51;;;;;;;16.08;9.70;;;;;;;10.72;74.33;101450.66;4993077;28;20410;-68
2022/04/30 02:12:55;;;;;;;15.80;8.65;;;;;;;10.92;74.03;101442.03;4989389;28;20038;-68
2022/04/30 02:16:00;;;;;;;17.38;9.13;;;;;;;11.07;72.99;101441.44;4973885;28;20105;-68
2022/04/30 02:19:06;;;;;;;16.20;9.55;;;;;;;11.21;73.38;101440.03;4973932;28;20541;-68
2022/04/30 02:22:09;;;;;;;13.40;9.40;;;;;;;11.15;74.11;101441.13;4973842;28;20093;-68
2022/04/30 02:25:13;;;;;;;;;;;;;;;11.17;73.87;101432.31;4973814;28;20604;-68
2022/04/30 02:28:17;;;;;;;17.52;10.40;;;;;;;11.29;73.15;101441.41;4972574;28;19983;-68
2022/04/30 02:31:25;;;;;;;16.83;9.60;;;;;;;11.16;73.53;101434.97;4972667;28;20081;-68
2022/04/30 02:34:29;;;;;;;12.80;9.50;;;;;;;11.12;74.46;101426.38;4973297;28;20050;-68
2022/04/30 02:37:32;;;;;;;18.65;9.50;;;;;;;11.11;75.22;101436.94;4973454;28;20043;-68
2022/04/30 02:40:38;;;;;;;17.25;9.27;;;;;;;10.92;76.13;101431.56;4973308;28;20078;-66
2022/04/30 02:43:41;;;;;;;12.82;9.05;;;;;;;10.84;76.45;101434.47;4973991;28;20123;-66
2022/04/30 02:46:44;;;;;;;12.63;9.32;;;;;;;10.78;77.01;101434.72;4973334;28;20410;-66
2022/04/30 02:49:48;;;;;;;14.70;9.95;;;;;;;10.93;76.67;101430.66;4973139;28;20074;-66
2022/04/30 02:52:55;;;;;;;18.15;10.23;;;;;;;10.76;77.37;101428.72;4973646;28;20053;-66
2022/04/30 02:55:59;;;;;;;19.85;9.55;;;;;;;10.70;77.89;101426.31;4973348;28;20053;-66
2022/04/30 03:02:28;;;;;;;18.30;10.02;;;;;;;10.68;78.17;101418.53;4992706;28;20076;-67
2022/04/30 03:05:32;;;;;;;15.48;10.15;;;;;;;10.65;78.22;101420.41;4991542;28;20456;-67
2022/04/30 03:08:37;;;;;;;17.13;10.02;;;;;;;10.68;78.12;101417.66;4992496;28;20105;-67
2022/04/30 03:11:42;;;;;;;12.65;10.60;;;;;;;10.77;77.85;101406.84;4992236;28;20053;-66
2022/04/30 03:14:46;;;;;;;15.60;9.98;;;;;;;10.87;77.36;101418.66;4992800;28;20054;-67
2022/04/30 03:24:36;;;;;;;13.15;9.65;;;;;;;10.64;76.85;101409.09;4992339;28;20109;-67
2022/04/30 03:27:42;;;;;;;13.35;10.40;;;;;;;10.70;76.58;101406.25;4992623;28;20413;-67
2022/04/30 03:30:46;;;;;;;15.25;10.75;;;;;;;10.73;77.02;101407.03;4991207;28;20524;-67
2022/04/30 03:33:50;;;;;;;12.18;9.63;;;;;;;10.92;76.14;101398.41;4992370;28;20077;-67
2022/04/30 03:36:54;;;;;;;15.27;10.40;;;;;;;10.98;76.45;101396.47;4992350;28;20053;-67
2022/04/30 03:39:57;;;;;;;;;;;;;;;11.16;75.65;101393.09;4995890;28;20048;-68
2022/04/30 03:43:01;;;;;;;15.35;10.15;;;;;;;11.01;76.95;101394.59;4983572;28;19921;-68
2022/04/30 03:46:05;;;;;;;15.13;10.23;;;;;;;10.91;77.97;101399.34;4976220;28;20053;-68
2022/04/30 03:49:08;;;;;;;16.85;10.85;;;;;;;10.80;78.54;101393.66;4976480;28;20054;-67
2022/04/30 03:52:12;;;;;;;;;;;;;;;10.74;78.54;101390.44;4976867;28;20050;-67
2022/04/30 03:55:15;;;;;;;22.30;12.50;;;;;;;10.76;78.73;101399.94;4989450;28;19937;-68
2022/04/30 03:58:19;;;;;;;14.50;12.40;;;;;;;10.76;78.38;101393.84;4635957;28;9999963;-68
2022/04/30 04:01:24;;;;;;;12.50;10.40;;;;;;;10.93;77.68;101392.25;4992628;28;20041;-67
2022/04/30 04:04:29;;;;;;;16.63;11.75;;;;;;;10.82;78.34;101394.47;4973944;28;20130;-68
2022/04/30 04:07:33;;;;;;;17.30;11.15;;;;;;;10.71;78.89;101392.25;4976106;28;20041;-68
2022/04/30 04:10:44;;;;;;;15.20;11.93;;;;;;;10.67;79.12;101395.06;4976051;28;20283;-68
2022/04/30 04:20:34;;;;;;;20.25;13.48;;;;;;;10.75;75.22;101400.81;4975444;28;20045;-68
2022/04/30 04:27:01;;;;;;;19.63;14.85;;;;;;;10.93;75.19;101401.88;4975477;28;20084;-68
2022/04/30 04:30:05;;;;;;;15.77;13.18;;;;;;;11.01;74.70;101404.16;4975690;28;20521;-68
2022/04/30 04:33:08;;;;;;;20.95;14.38;;;;;;;11.04;72.31;101410.16;4975444;28;20399;-68
2022/04/30 04:36:12;;;;;;;;;;;;;;;10.98;71.64;101412.16;4975485;28;20116;-68
2022/04/30 04:39:16;;;;;;;22.00;14.35;;;;;;;10.54;71.33;101405.13;4975479;28;19969;-68
2022/04/30 04:42:20;;;;;;;16.08;14.23;;;;;;;10.35;72.46;101420.66;4984374;28;20038;-68
2022/04/30 04:45:26;;;;;;;16.95;15.25;;;;;;;10.11;72.75;101417.13;4997480;28;20085;-68
2022/04/30 04:48:32;;;;;;;18.77;14.98;;;;;;;10.40;71.49;101423.97;4994561;28;20126;-68
2022/04/30 04:51:36;;;;;;;16.23;13.93;;;;;;;10.17;72.26;101426.50;4992648;28;20706;-68
2022/04/30 04:54:40;;;;;;;15.32;13.73;;;;;;;10.15;72.31;101433.56;4970978;28;20049;-68
2022/04/30 04:57:44;;;;;;;21.55;15.93;;;;;;;10.42;71.35;101431.72;4978197;28;20041;-68
2022/04/30 05:00:48;;;;;;;19.83;13.68;;;;;;;10.65;70.06;101438.72;4977599;28;20116;-68
2022/04/30 05:03:53;;;;;;;19.20;14.38;;;;;;;10.64;70.24;101434.41;5015073;28;20058;-67
2022/04/30 05:06:59;;;;;;;15.55;14.00;;;;;;;10.75;69.63;101433.97;5008111;28;20104;-67
2022/04/30 05:10:03;;;;;;;16.45;14.45;;;;;;;10.60;70.04;101438.91;5004980;28;20125;-68
2022/04/30 05:13:06;;;;;;;16.23;14.52;;;;;;;10.44;69.83;101437.78;4991522;28;20555;-68
2022/04/30 05:16:11;;;;;;;15.48;12.77;;;;;;;10.66;69.87;101440.44;4993541;28;20057;-68
2022/04/30 05:19:16;;;;;;;16.95;13.63;;;;;;;10.82;69.20;101438.94;5016197;28;20033;-68
2022/04/30 05:22:20;;;;;;;14.95;12.77;;;;;;;10.81;69.22;101439.81;4994086;28;20057;-68
2022/04/30 05:25:24;;;;;;;16.50;13.38;;;;;;;10.91;68.85;101441.19;4990121;28;20130;-68
2022/04/30 05:28:27;;;;;;;16.77;13.70;;;;;;;11.04;67.98;101435.44;4989608;28;20045;-68
2022/04/30 05:31:31;;;;;;;19.63;14.25;;;;;;;10.90;68.23;101449.09;4989594;28;20494;-68
2022/04/30 05:34:35;;;;;;;16.08;13.60;;;;;;;10.45;69.78;101442.09;4990198;28;20053;-68
2022/04/30 05:37:40;;;;;;;15.90;13.85;;;;;;;10.73;69.05;101448.91;4990070;28;20095;-68
2022/04/30 05:40:45;;;;;;;16.95;14.43;;;;;;;10.39;70.06;101445.75;4990975;28;20047;-68
2022/04/30 05:43:50;;;;;;;16.33;13.68;;;;;;;10.43;69.78;101446.50;4989410;28;20104;-68
2022/04/30 05:46:54;;;;;;;15.38;12.27;;;;;;;10.54;69.44;101456.59;4975541;28;20113;-68
2022/04/30 05:49:58;;;;;;;14.07;12.68;;;;;;;10.66;68.65;101450.91;4988244;28;20100;-68
2022/04/30 05:53:05;;;;;;;16.52;13.15;;;;;;;10.54;69.30;101457.44;4988524;28;20061;-68
2022/04/30 05:56:09;;;;;;;16.30;13.27;;;;;;;10.54;69.52;101461.81;4990701;28;20093;-67
2022/04/30 05:59:13;;;;;;;13.68;12.02;;;;;;;10.55;69.53;101456.50;4982618;28;20050;-66
2022/04/30 06:02:17;;;;;;;15.27;13.13;;;;;;;10.64;69.15;101468.41;4968816;28;20049;-66
2022/04/30 06:05:22;;;;;;;16.98;13.10;;;;;;;10.53;69.16;101462.69;4984064;28;20042;-67
2022/04/30 06:08:28;;;;;;;15.93;12.55;;;;;;;10.68;69.75;101464.75;4977797;28;20062;-67
2022/04/30 06:11:31;;;;;;;15.45;13.35;;;;;;;10.40;70.10;101473.63;4974159;28;20045;-68
2022/04/30 06:14:34;;;;;;;16.80;14.05;;;;;;;10.26;71.74;101478.50;4990401;28;20057;-68
2022/04/30 06:17:38;;;;;;;;;;;;;;;10.41;71.68;101479.72;4989950;28;20045;-68
2022/04/30 06:20:43;;;;;;;16.75;14.32;;;;;;;9.75;72.68;101480.22;4994726;28;19976;-68
2022/04/30 06:23:47;;;;;;;16.45;14.52;;;;;;;10.16;71.97;101483.16;4993231;28;20057;-67
2022/04/30 06:26:52;;;;;;;16.75;13.50;;;;;;;10.59;71.51;101486.88;4993544;28;20580;-67
2022/04/30 06:29:57;;;;;;;15.52;12.63;;;;;;;10.76;69.15;101483.63;4973775;28;20085;-68
2022/04/30 06:33:01;;;;;;;24.48;15.13;;;;;;;9.97;71.68;101482.09;4973279;28;20085;-68
2022/04/30 06:36:05;;;;;;;18.40;14.00;;;;;;;10.34;70.00;101484.31;4982426;28;20450;-68
2022/04/30 06:39:09;;;;;;;14.80;13.25;;;;;;;10.50;70.36;101497.69;4983290;28;20088;-68
2022/04/30 06:42:13;;;;;;;16.52;13.40;;;;;;;10.60;69.40;101493.81;4988622;28;20125;-68
2022/04/30 06:45:17;;;;;;;14.73;12.75;;;;;;;10.67;68.85;101494.44;5001028;28;20255;-68
2022/04/30 06:48:20;;;;;;;15.18;12.45;;;;;;;10.35;69.12;101498.22;4991424;28;20173;-68
2022/04/30 06:51:23;;;;;;;15.20;12.75;;;;;;;10.30;69.48;101501.00;4988271;28;20061;-68
2022/04/30 06:57:48;;;;;;;22.40;14.88;;;;;;;10.74;69.08;101495.91;4969233;28;20050;-68
2022/04/30 07:04:04;;;;;;;18.50;13.73;;;;;;;10.14;69.34;101489.34;4968345;28;20050;-68
2022/04/30 07:07:09;;;;;;;19.77;14.07;;;;;;;9.70;70.33;101494.31;4980527;28;20045;-68
2022/04/30 07:10:13;;;;;;;17.88;13.70;;;;;;;10.21;70.26;101501.28;4980778;28;20049;-68
2022/04/30 07:13:18;;;;;;;14.15;12.70;;;;;;;10.25;70.07;101503.75;4991298;28;20097;-67
2022/04/30 07:16:23;;;;;;;18.25;13.35;;;;;;;10.28;68.54;101504.59;4992999;28;20756;-68
2022/04/30 07:19:26;;;;;;;14.73;13.10;;;;;;;10.02;70.13;101507.16;4981361;28;20060;-67
2022/04/30 07:22:29;;;;;;;21.40;13.93;;;;;;;9.86;70.02;101500.75;4996144;28;20048;-68
2022/04/30 07:25:33;;;;;;;13.93;11.82;;;;;;;10.38;68.81;101504.19;4998660;28;20466;-68
2022/04/30 07:28:36;;;;;;;14.13;12.63;;;;;;;10.52;67.64;101506.31;4983659;28;20382;-68
2022/04/30 07:31:40;;;;;;;31.35;18.55;;;;;;;10.79;67.28;101504.44;4992242;28;20132;-68
2022/04/30 07:34:44;;;;;;;17.90;12.88;;;;;;;10.91;65.89;101504.00;4998729;28;20485;-68
2022/04/30 07:37:45;;;;;;;23.40;13.57;;;;;;;10.64;66.11;101508.47;4974653;28;20058;-72
2022/04/30 07:40:49;;;;;;;19.52;12.48;;;;;;;10.86;65.70;101505.91;4974807;28;20484;-70
2022/04/30 07:43:52;;;;;;;16.38;13.40;;;;;;;11.07;65.27;101516.47;4975018;28;20094;-70
2022/04/30 07:46:59;;;;;;;16.17;12.77;;;;;;;10.54;65.72;101517.56;4970633;28;20049;-71
2022/04/30 07:50:07;;;;;;;19.20;13.93;;;;;;;10.82;65.19;101517.41;4974748;28;20046;-71
2022/04/30 07:53:16;;;;;;;21.17;17.83;;;;;;;10.87;65.84;101512.84;4974854;28;20085;-71
2022/04/30 07:56:20;;;;;;;23.85;17.08;;;;;;;11.15;64.70;101517.03;4975339;28;20054;-73
2022/04/30 07:59:23;;;;;;;20.10;12.82;;;;;;;11.03;64.39;101522.75;4963733;28;20088;-71
2022/04/30 08:02:26;;;;;;;14.27;12.77;;;;;;;11.18;64.41;101517.78;4975257;28;20045;-71
2022/04/30 08:05:30;;;;;;;16.30;11.45;;;;;;;11.44;63.21;101515.03;4963220;28;20126;-71
2022/04/30 08:08:33;;;;;;;15.70;11.20;;;;;;;11.27;63.76;101519.19;4974573;28;20081;-71
2022/04/30 08:11:37;;;;;;;17.48;12.30;;;;;;;10.51;65.18;101525.53;4975874;28;20158;-69
2022/04/30 08:14:40;;;;;;;;;;;;;;;10.31;66.12;101528.00;4976369;28;20045;-69
2022/04/30 08:17:44;;;;;;;16.60;11.93;;;;;;;10.79;65.61;101527.16;4975942;28;19988;-73
2022/04/30 08:20:47;;;;;;;17.90;12.13;;;;;;;11.18;64.96;101527.38;4975852;28;20042;-70
2022/04/30 08:23:51;;;;;;;17.05;12.02;;;;;;;11.21;64.06;101527.28;4974430;28;20125;-70
2022/04/30 08:26:54;;;;;;;;;;;;;;;11.31;63.94;101530.38;4975349;28;20061;-71
2022/04/30 08:29:57;;;;;;;17.57;11.83;;;;;;;11.39;63.39;101530.91;4975574;28;19956;-70
2022/04/30 08:33:00;;;;;;;15.95;11.55;;;;;;;11.22;63.77;101530.75;4975511;28;20278;-71
2022/04/30 08:36:03;;;;;;;;;;;;;;;11.22;62.82;101534.22;4975602;28;20195;-77
2022/04/30 08:39:07;;;;;;;14.13;11.02;;;;;;;11.11;63.28;101525.94;4963240;28;20456;-72
2022/04/30 08:42:13;;;;;;;16.98;10.10;;;;;;;11.45;62.77;101535.06;4974593;28;20449;-70
2022/04/30 08:45:16;;;;;;;14.75;11.40;;;;;;;11.25;63.07;101522.78;4974283;28;20185;-71
2022/04/30 08:48:19;;;;;;;14.25;10.82;;;;;;;11.50;62.66;101527.88;4975179;28;20442;-71
2022/04/30 08:51:22;;;;;;;;;;;;;;;11.31;62.04;101528.63;4974902;28;20274;-71
2022/04/30 08:54:25;;;;;;;18.98;11.95;;;;;;;11.08;62.79;101531.28;4974528;28;19936;-70
2022/04/30 08:57:29;;;;;;;14.80;10.50;;;;;;;11.11;62.82;101536.41;4974912;28;20045;-71
2022/04/30 09:00:41;;;;;;;14.75;11.52;;;;;;;10.75;63.76;101538.63;4974969;28;20093;-71
2022/04/30 09:03:46;;;;;;;16.77;11.70;;;;;;;10.30;65.34;101534.97;4974717;28;20197;-71
2022/04/30 09:06:55;;;;;;;14.75;11.70;;;;;;;10.43;65.34;101528.44;4971461;28;20101;-71
2022/04/30 09:10:01;;;;;;;14.32;12.00;;;;;;;10.39;65.18;101536.41;4967336;28;20141;-70
2022/04/30 09:13:10;;;;;;;16.95;12.50;;;;;;;10.30;65.24;101531.50;4973902;28;20536;-71
2022/04/30 09:16:21;;;;;;;17.67;11.90;;;;;;;10.36;65.65;101526.91;4954819;28;20050;-70
2022/04/30 09:19:24;;;;;;;13.98;12.32;;;;;;;10.27;65.09;101527.25;4942159;28;20053;-70
2022/04/30 09:22:35;;;;;;;13.07;10.95;;;;;;;10.47;64.69;101530.03;4953889;28;20566;-71
2022/04/30 09:25:51;;;;;;;17.10;11.93;;;;;;;10.37;65.24;101527.78;4952457;28;20046;-71
2022/04/30 09:28:55;;;;;;;16.55;11.98;;;;;;;10.62;63.91;101532.97;4983040;28;20132;-71
2022/04/30 09:31:58;;;;;;;14.75;10.65;;;;;;;10.78;63.87;101531.50;4989739;28;20065;-71
2022/04/30 09:38:25;;;;;;;17.37;11.77;;;;;;;10.36;64.54;101533.91;4978184;28;20058;-70
2022/04/30 09:41:28;;;;;;;15.55;10.75;;;;;;;10.51;65.25;101527.31;4989190;28;20074;-70
2022/04/30 09:44:35;;;;;;;;;;;;;;;10.18;65.42;101533.63;4951474;28;20102;-71
2022/04/30 09:47:40;;;;;;;15.10;10.38;;;;;;;10.40;65.18;101539.00;4951213;28;19968;-72
2022/04/30 09:54:07;;;;;;;20.50;10.55;;;;;;;11.06;63.64;101520.00;4955320;28;20437;-71
2022/04/30 09:57:14;;;;;;;10.63;9.52;;;;;;;10.95;63.46;101520.44;4950995;28;20416;-71
2022/04/30 10:00:18;;;;;;;13.10;10.55;;;;;;;10.82;64.24;101525.28;4969729;28;20069;-71
2022/04/30 10:03:29;;;;;;;12.50;9.43;;;;;;;10.93;63.74;101517.84;4970232;28;20045;-71
2022/04/30 10:06:41;;;;;;;13.05;9.32;;;;;;;10.93;64.04;101522.25;4968632;28;20058;-71
2022/04/30 10:10:06;;;;;;;13.27;9.95;;;;;;;10.84;64.11;101522.56;4954999;28;20962;-71
2022/04/30 10:13:24;;;;;;;17.00;9.73;;;;;;;10.34;64.78;101528.75;4971962;28;20096;-71
2022/04/30 10:16:29;;;;;;;14.55;9.40;;;;;;;10.86;63.94;101521.63;4990109;28;20053;-71
2022/04/30 10:19:32;;;;;;;15.88;9.18;;;;;;;10.43;64.48;101517.09;4989638;28;20555;-71
2022/04/30 10:22:38;;;;;;;12.43;9.63;;;;;;;10.50;64.49;101520.34;4955221;28;20065;-71
2022/04/30 10:25:48;;;;;;;13.50;9.15;;;;;;;10.60;65.01;101516.50;4969912;28;20047;-71
2022/04/30 10:29:13;;;;;;;11.18;8.63;;;;;;;10.82;64.18;101519.19;4969852;28;20140;-71
2022/04/30 10:32:34;;;;;;;11.05;9.25;;;;;;;10.56;63.57;101522.72;4970390;28;20466;-71
2022/04/30 10:35:39;;;;;;;13.18;8.68;;;;;;;10.51;63.96;101511.59;4946662;28;20104;-71
2022/04/30 10:38:59;;;;;;;14.07;9.00;;;;;;;10.70;63.72;101515.25;4969298;28;20144;-71
2022/04/30 10:42:04;;;;;;;13.18;8.80;;;;;;;10.57;63.49;101519.25;4969582;28;20041;-70
2022/04/30 10:45:11;;;;;;;10.88;8.18;;;;;;;10.87;62.68;101512.84;4969640;28;20068;-71
2022/04/30 10:48:16;;;;;;;11.00;8.18;;;;;;;10.83;62.74;101516.50;4969197;28;20048;-71
2022/04/30 10:51:42;;;;;;;13.23;8.50;;;;;;;10.23;63.87;101510.78;4949783;28;20050;-71
2022/04/30 10:54:49;;;;;;;11.63;7.70;;;;;;;10.20;64.90;101508.28;4950711;28;20126;-71
2022/04/30 10:57:53;;;;;;;12.90;8.82;;;;;;;10.26;64.09;101504.63;4601306;28;9999784;-71
2022/04/30 11:00:56;;;;;;;15.65;8.50;;;;;;;10.63;63.87;101505.94;4969026;28;20042;-71
2022/04/30 11:04:01;;;;;;;11.48;8.93;;;;;;;10.25;63.35;101513.34;4968755;28;20042;-71
2022/04/30 11:07:05;;;;;;;13.13;8.13;;;;;;;10.07;64.48;101503.53;4967976;28;20412;-71
2022/04/30 11:10:09;;;;;;;12.98;8.20;;;;;;;10.09;64.64;101509.56;4968376;28;20409;-71
2022/04/30 11:13:12;;;;;;;14.32;8.40;;;;;;;10.10;64.56;101508.66;4968053;28;20098;-71
2022/04/30 11:16:15;;;;;;;11.95;8.45;;;;;;;10.27;63.55;101511.56;4969612;28;20168;-70
2022/04/30 11:19:23;;;;;;;9.68;7.90;;;;;;;10.44;62.64;101498.75;4971329;28;20097;-71
2022/04/30 11:22:25;;;;;;;11.75;8.93;;;;;;;10.08;64.51;101500.00;4967655;28;20070;-70
2022/04/30 11:25:37;;;;;;;12.85;7.57;;;;;;;10.32;64.00;101501.81;4967955;28;20053;-70
2022/04/30 11:28:40;;;;;;;14.02;8.65;;;;;;;10.53;63.64;101484.50;4967665;28;20097;-70
2022/04/30 11:31:44;;;;;;;13.30;7.53;;;;;;;10.66;63.92;101482.28;4967649;28;20093;-70
2022/04/30 11:34:49;;;;;;;13.43;8.30;;;;;;;10.61;63.02;101485.06;4967705;28;20049;-71
2022/04/30 11:37:53;;;;;;;11.43;7.93;;;;;;;10.48;63.76;101483.81;4986542;28;20057;-71
2022/04/30 11:41:04;;;;;;;9.40;6.78;;;;;;;10.83;62.78;101479.88;4973680;28;20118;-71
2022/04/30 11:44:14;;;;;;;11.43;7.53;;;;;;;10.75;62.74;101487.13;4968438;28;20054;-71
2022/04/30 11:47:20;;;;;;;10.75;7.55;;;;;;;10.83;62.21;101482.50;4974086;28;20105;-70
2022/04/30 11:50:24;;;;;;;11.43;8.07;;;;;;;11.04;63.26;101478.22;4958167;28;20058;-71
2022/04/30 11:53:28;;;;;;;16.13;8.02;;;;;;;10.85;62.89;101483.28;4967916;28;20058;-71
2022/04/30 11:56:31;;;;;;;;;;;;;;;10.85;62.71;101478.06;4968340;28;20042;-71
2022/04/30 11:59:40;;;;;;;37.80;10.88;;;;;;;11.16;61.56;101475.06;4968820;28;19967;-71
2022/04/30 12:02:49;;;;;;;17.33;8.32;;;;;;;11.14;61.67;101473.47;4970617;28;20042;-71
2022/04/30 12:05:53;;;;;;;14.95;9.00;;;;;;;10.78;62.06;101476.56;4971043;28;20193;-70
2022/04/30 12:08:56;;;;;;;12.43;8.75;;;;;;;11.12;62.05;101477.91;4966080;28;20053;-71
2022/04/30 12:12:00;;;;;;;9.68;8.13;;;;;;;11.11;60.92;101468.34;4970547;28;20046;-71
2022/04/30 12:15:04;;;;;;;9.32;7.13;;;;;;;10.81;60.88;101473.84;4971796;28;20100;-71
2022/04/30 12:25:15;;;;;;;10.90;8.13;;;;;;;11.00;60.23;101450.44;4961521;28;20050;-71
2022/04/30 12:28:19;;;;;;;13.93;6.40;;;;;;;11.31;60.22;101450.06;4970030;28;20708;-72
2022/04/30 12:31:23;;;;;;;12.85;6.78;;;;;;;11.45;59.26;101443.41;4952586;28;20109;-71
2022/04/30 12:34:32;;;;;;;9.20;6.40;;;;;;;11.32;58.96;101446.53;4953246;28;20169;-71
2022/04/30 12:37:36;;;;;;;11.90;6.38;;;;;;;11.68;58.59;101438.09;4970841;28;20073;-71
2022/04/30 12:40:42;;;;;;;9.77;5.43;;;;;;;11.73;58.02;101443.97;4971809;28;20126;-71
2022/04/30 12:43:45;;;;;;;8.57;5.45;;;;;;;11.77;57.39;101437.69;4969983;28;20130;-71
2022/04/30 12:46:49;;;;;;;8.10;5.45;;;;;;;11.79;57.70;101435.84;4968305;28;20049;-71
2022/04/30 12:49:52;;;;;;;9.07;5.47;;;;;;;11.85;57.33;101430.38;4959186;28;20097;-71
2022/04/30 12:52:55;;;;;;;7.78;4.88;;;;;;;11.56;57.74;101423.72;4969527;28;20049;-71
2022/04/30 12:56:00;;;;;;;9.05;5.15;;;;;;;11.69;58.78;101424.06;4971204;28;20042;-71
2022/04/30 12:59:03;;;;;;;12.75;5.40;;;;;;;11.89;57.79;101425.00;4954218;28;20045;-71
2022/04/30 13:02:07;;;;;;;15.15;5.25;;;;;;;12.03;57.47;101420.03;4955493;28;20070;-71
2022/04/30 13:05:12;;;;;;;9.43;5.18;;;;;;;12.14;57.10;101419.53;4971573;28;20045;-71
2022/04/30 13:08:15;;;;;;;8.50;4.88;;;;;;;12.17;56.44;101409.75;4974696;28;20520;-71
2022/04/30 13:14:40;;;;;;;10.70;5.78;;;;;;;12.32;56.88;101409.06;4974588;28;20132;-71
2022/04/30 13:17:43;;;;;;;7.10;5.22;;;;;;;12.25;56.83;101399.78;4974440;28;20061;-71
2022/04/30 13:20:47;;;;;;;12.07;5.13;;;;;;;12.31;56.87;101407.34;4974655;28;20053;-75
2022/04/30 13:23:50;;;;;;;11.00;5.80;;;;;;;12.20;56.57;101400.91;4974310;28;20049;-71
2022/04/30 13:26:54;;;;;;;5.95;4.57;;;;;;;12.07;56.88;101403.22;4972417;28;20165;-72
2022/04/30 13:29:57;;;;;;;11.48;4.93;;;;;;;12.27;56.28;101400.56;4973826;28;20530;-72
2022/04/30 13:33:00;;;;;;;7.00;5.13;;;;;;;12.28;56.63;101397.03;4951474;29;20089;-70
2022/04/30 13:36:04;;;;;;;9.07;4.45;;;;;;;12.20;56.72;101391.28;4990275;28;20591;-70
2022/04/30 13:39:11;;;;;;;12.23;5.18;;;;;;;12.29;56.91;101393.47;4990424;28;20066;-71
2022/04/30 13:42:13;;;;;;;13.82;5.25;;;;;;;12.25;57.17;101391.91;4990422;28;20793;-73
2022/04/30 13:45:17;;;;;;;8.15;4.53;;;;;;;12.41;56.48;101383.31;4992250;28;20463;-73
2022/04/30 13:48:20;;;;;;;9.07;4.70;;;;;;;12.44;56.40;101383.19;4988679;28;20562;-73
2022/04/30 13:51:24;;;;;;;9.90;5.53;;;;;;;12.53;56.21;101382.75;4989681;28;20046;-74
2022/04/30 13:54:27;;;;;;;;;;;;;;;12.33;55.58;101383.69;4990526;28;20053;-75
2022/04/30 13:57:30;;;;;;;10.60;5.80;;;;;;;12.08;56.49;101376.94;4972257;28;19921;-68
2022/04/30 14:00:34;;;;;;;6.15;4.22;;;;;;;11.93;56.67;101376.75;4973362;28;20077;-76
2022/04/30 14:03:37;;;;;;;8.80;4.13;;;;;;;12.10;56.60;101377.72;4966689;28;20054;-74
2022/04/30 14:06:40;;;;;;;8.15;4.57;;;;;;;12.18;56.54;101374.75;4970136;28;20568;-80
2022/04/30 14:09:44;;;;;;;8.38;4.20;;;;;;;12.42;55.66;101371.94;4950591;28;20054;-74
2022/04/30 14:12:47;;;;;;;9.25;4.43;;;;;;;12.46;55.70;101370.88;4951312;28;20156;-78
2022/04/30 14:15:51;;;;;;;;;;;;;;;12.27;55.07;101363.00;4963858;28;20559;-74
2022/04/30 14:18:55;;;;;;;8.77;4.28;;;;;;;12.11;55.46;101362.84;4970105;28;19920;-74
2022/04/30 14:22:10;;;;;;;8.23;4.38;;;;;;;12.34;55.30;101365.25;4969591;28;20505;-73
2022/04/30 14:25:22;;;;;;;7.25;3.90;;;;;;;12.53;55.67;101351.28;4969516;28;20050;-73
2022/04/30 14:28:26;;;;;;;7.60;3.85;;;;;;;12.62;56.11;101358.72;4969423;28;20057;-73
2022/04/30 14:31:54;;;;;;;6.80;3.40;;;;;;;12.69;54.89;101354.88;4950531;28;20050;-71
2022/04/30 14:35:00;;;;;;;8.35;4.65;;;;;;;12.74;54.21;101358.13;4970523;28;20554;-70
2022/04/30 14:38:08;;;;;;;13.02;5.20;;;;;;;12.80;53.79;101357.84;4972129;28;20097;-73
2022/04/30 14:41:15;;;;;;;8.65;4.35;;;;;;;12.72;54.01;101354.72;4943822;28;20054;-72
2022/04/30 14:44:18;;;;;;;7.95;4.00;;;;;;;12.80;54.35;101343.88;4953981;28;20557;-71
2022/04/30 14:47:24;;;;;;;14.32;5.13;;;;;;;12.85;54.84;101341.88;4963247;28;20049;-73
2022/04/30 14:50:32;;;;;;;14.73;5.75;;;;;;;12.87;55.04;101342.66;4972417;28;20066;-72
2022/04/30 14:53:39;;;;;;;7.10;3.50;;;;;;;12.98;54.37;101342.13;4960574;28;20042;-73
2022/04/30 14:56:46;;;;;;;;;;;;;;;12.96;55.21;101333.47;4972970;28;20053;-72
2022/04/30 14:59:50;;;;;;;10.48;6.13;;;;;;;12.85;54.01;101335.78;4972868;28;19921;-71
2022/04/30 15:02:54;;;;;;;10.60;4.93;;;;;;;12.93;54.59;101342.34;4973176;28;20078;-70
2022/04/30 15:05:57;;;;;;;5.15;3.17;;;;;;;12.92;54.18;101337.16;4973202;28;20041;-71